createdAt,value
2017-05-03T00:00:16.477Z,93.7
2017-05-03T00:01:18.287Z,93.9
2017-05-03T00:02:20.109Z,93.6
2017-05-03T00:03:21.937Z,93.2
2017-05-03T00:04:24.092Z,92.9
2017-05-03T00:05:25.954Z,93.6
2017-05-03T00:06:27.749Z,93.2
2017-05-03T00:07:29.576Z,93.2
2017-05-03T00:08:31.381Z,93.1
2017-05-03T00:09:33.201Z,93.5
2017-05-03T00:10:34.998Z,94
2017-05-03T00:11:36.814Z,93.9
2017-05-03T00:12:38.622Z,94
2017-05-03T00:13:40.788Z,94.1
2017-05-03T00:14:42.933Z,93.5
2017-05-03T00:15:44.742Z,93.3
2017-05-03T00:16:46.557Z,94
2017-05-03T00:17:48.374Z,93.7
2017-05-03T00:18:50.534Z,93.3
2017-05-03T00:19:52.681Z,93.3
2017-05-03T00:20:54.837Z,93.4
2017-05-03T00:21:56.989Z,93.8
2017-05-03T00:22:58.810Z,93.7
2017-05-03T00:24:00.647Z,93.8
2017-05-03T00:25:02.455Z,93.3
2017-05-03T00:26:04.597Z,93.5
2017-05-03T00:27:06.745Z,93.5
2017-05-03T00:28:08.577Z,93.1
2017-05-03T00:29:10.404Z,93.1
2017-05-03T00:30:12.219Z,93.2
2017-05-03T00:31:14.035Z,93.6
2017-05-03T00:32:16.196Z,93
2017-05-03T00:33:18.026Z,92.8
2017-05-03T00:34:20.178Z,92.9
2017-05-03T00:35:21.979Z,92.8
2017-05-03T00:36:23.809Z,92.8
2017-05-03T00:37:26.001Z,92.8
2017-05-03T00:38:27.818Z,92.8
2017-05-03T00:39:29.626Z,92.8
2017-05-03T00:40:31.444Z,92.7
2017-05-03T00:41:33.263Z,92.7
2017-05-03T00:42:35.075Z,92.9
2017-05-03T00:43:36.891Z,93.3
2017-05-03T00:44:38.720Z,93.5
2017-05-03T00:45:40.530Z,93.3
2017-05-03T00:46:42.383Z,93.1
2017-05-03T00:47:44.183Z,93.7
2017-05-03T00:48:46.005Z,93.1
2017-05-03T00:49:47.813Z,93
2017-05-03T00:50:49.634Z,92.7
2017-05-03T00:51:51.448Z,92.4
2017-05-03T00:52:53.593Z,92.4
2017-05-03T00:53:55.438Z,93
2017-05-03T00:54:57.245Z,93.3
2017-05-03T00:55:59.423Z,93.3
2017-05-03T00:57:01.230Z,93.3
2017-05-03T00:58:03.042Z,93.2
2017-05-03T00:59:04.869Z,93.2
2017-05-03T01:00:06.683Z,92.6
2017-05-03T01:01:08.493Z,92.3
2017-05-03T01:02:10.308Z,92.7
2017-05-03T01:03:12.122Z,92.9
2017-05-03T01:04:13.950Z,92.7
2017-05-03T01:05:16.122Z,92.6
2017-05-03T01:06:17.930Z,92.8
2017-05-03T01:07:19.737Z,92.5
2017-05-03T01:08:21.550Z,92.6
2017-05-03T01:09:23.388Z,92.8
2017-05-03T01:10:25.232Z,92.5
2017-05-03T01:11:27.053Z,92.2
2017-05-03T01:12:28.856Z,92
2017-05-03T01:13:30.710Z,92
2017-05-03T01:14:32.519Z,91.9
2017-05-03T01:15:34.333Z,92.4
2017-05-03T01:16:36.134Z,92.6
2017-05-03T01:17:37.964Z,92.6
2017-05-03T01:18:40.136Z,92.6
2017-05-03T01:19:41.974Z,92.5
2017-05-03T01:20:43.790Z,92.8
2017-05-03T01:21:45.937Z,92.7
2017-05-03T01:22:47.753Z,92.5
2017-05-03T01:23:49.908Z,92.6
2017-05-03T01:24:51.725Z,92.4
2017-05-03T01:25:53.534Z,91.9
2017-05-03T01:26:55.358Z,91.5
2017-05-03T01:27:57.515Z,91.6
2017-05-03T01:28:59.319Z,92.1
2017-05-03T01:30:01.175Z,92.2
2017-05-03T01:31:02.982Z,92.2
2017-05-03T01:32:04.832Z,92.1
2017-05-03T01:33:06.985Z,92
2017-05-03T01:34:08.799Z,92.1
2017-05-03T01:35:10.614Z,92
2017-05-03T01:36:12.426Z,92.1
2017-05-03T01:37:14.246Z,92
2017-05-03T01:38:16.745Z,92.5
2017-05-03T01:39:18.578Z,92.4
2017-05-03T01:40:20.401Z,92.3
2017-05-03T01:41:22.551Z,91.8
2017-05-03T01:42:24.378Z,91.8
2017-05-03T01:43:26.190Z,91.6
2017-05-03T01:44:28.349Z,91.6
2017-05-03T01:45:30.509Z,91.6
2017-05-03T01:46:32.323Z,91.5
2017-05-03T01:47:34.477Z,91.4
2017-05-03T01:48:36.635Z,91.4
2017-05-03T01:49:38.444Z,91.6
2017-05-03T01:50:40.274Z,91.9
2017-05-03T01:51:42.423Z,92
2017-05-03T01:52:44.239Z,92.2
2017-05-03T01:53:46.079Z,92.3
2017-05-03T01:54:47.903Z,92.8
2017-05-03T01:55:49.721Z,92.5
2017-05-03T01:56:51.542Z,92.1
2017-05-03T01:57:53.352Z,91.7
2017-05-03T01:58:55.489Z,91.6
2017-05-03T01:59:57.670Z,91.8
2017-05-03T02:00:59.488Z,91.7
2017-05-03T02:02:01.304Z,91.4
2017-05-03T02:03:03.120Z,91.3
2017-05-03T02:04:04.939Z,91.7
2017-05-03T02:05:06.776Z,91.9
2017-05-03T02:06:08.589Z,91.8
2017-05-03T02:07:10.402Z,91.2
2017-05-03T02:08:12.217Z,90.8
2017-05-03T02:09:14.061Z,90.7
2017-05-03T02:10:16.217Z,90.5
2017-05-03T02:11:18.017Z,90.7
2017-05-03T02:12:19.854Z,90.7
2017-05-03T02:13:22.029Z,91.1
2017-05-03T02:14:24.183Z,91.4
2017-05-03T02:15:25.996Z,91.1
2017-05-03T02:16:27.811Z,90.4
2017-05-03T02:17:29.623Z,90.5
2017-05-03T02:18:31.428Z,91.1
2017-05-03T02:19:33.238Z,90.9
2017-05-03T02:20:35.044Z,90.9
2017-05-03T02:21:36.864Z,90.8
2017-05-03T02:22:38.696Z,90.7
2017-05-03T02:23:40.850Z,90.7
2017-05-03T02:24:43.346Z,91.1
2017-05-03T02:25:45.156Z,90.9
2017-05-03T02:26:46.990Z,91.2
2017-05-03T02:27:48.823Z,91.1
2017-05-03T02:28:50.640Z,91.1
2017-05-03T02:29:52.797Z,91.2
2017-05-03T02:30:54.625Z,90.8
2017-05-03T02:31:56.778Z,90.5
2017-05-03T02:32:58.691Z,90.4
2017-05-03T02:34:00.515Z,90.8
2017-05-03T02:35:02.307Z,90.8
2017-05-03T02:36:04.126Z,90.7
2017-05-03T02:37:05.937Z,90
2017-05-03T02:38:07.753Z,89.7
2017-05-03T02:39:09.560Z,89.9
2017-05-03T02:40:11.395Z,90.3
2017-05-03T02:41:13.208Z,90.4
2017-05-03T02:42:15.027Z,90.5
2017-05-03T02:43:16.875Z,90.5
2017-05-03T02:44:18.691Z,90.4
2017-05-03T02:45:20.504Z,90.4
2017-05-03T02:46:22.356Z,90.5
2017-05-03T02:47:24.171Z,90.2
2017-05-03T02:48:25.985Z,90.1
2017-05-03T02:49:27.800Z,90.3
2017-05-03T02:50:29.620Z,90.2
2017-05-03T02:51:31.469Z,90
2017-05-03T02:52:33.275Z,89.9
2017-05-03T02:53:35.125Z,90.4
2017-05-03T02:54:37.321Z,90.3
2017-05-03T02:55:39.140Z,90.3
2017-05-03T02:56:40.937Z,90
2017-05-03T02:57:42.826Z,89.8
2017-05-03T02:58:44.980Z,90.3
2017-05-03T02:59:47.171Z,90.1
2017-05-03T03:00:49.314Z,90.2
2017-05-03T03:01:51.457Z,90.1
2017-05-03T03:02:53.269Z,90
2017-05-03T03:03:55.089Z,90
2017-05-03T03:04:56.916Z,90.4
2017-05-03T03:05:59.061Z,90.1
2017-05-03T03:07:00.870Z,89.8
2017-05-03T03:08:02.694Z,89.9
2017-05-03T03:09:04.841Z,89.6
2017-05-03T03:10:06.655Z,89.7
2017-05-03T03:11:08.471Z,89.7
2017-05-03T03:12:10.293Z,89.8
2017-05-03T03:13:12.121Z,89.5
2017-05-03T03:14:13.934Z,89.4
2017-05-03T03:15:15.749Z,89.6
2017-05-03T03:16:17.566Z,89.8
2017-05-03T03:17:19.386Z,90.2
2017-05-03T03:18:21.559Z,90.1
2017-05-03T03:19:23.407Z,90.2
2017-05-03T03:20:25.220Z,89.8
2017-05-03T03:21:27.032Z,89.4
2017-05-03T03:22:28.843Z,89.5
2017-05-03T03:23:30.669Z,89.5
2017-05-03T03:24:32.491Z,89.7
2017-05-03T03:25:34.306Z,89.9
2017-05-03T03:26:36.128Z,89.8
2017-05-03T03:27:38.308Z,89.8
2017-05-03T03:28:40.490Z,89.6
2017-05-03T03:29:42.292Z,89.4
2017-05-03T03:30:44.112Z,89.8
2017-05-03T03:31:45.922Z,89.8
2017-05-03T03:32:47.754Z,89.3
2017-05-03T03:33:49.559Z,89.5
2017-05-03T03:34:52.071Z,89.8
2017-05-03T03:35:53.886Z,89.5
2017-05-03T03:36:55.696Z,89.1
2017-05-03T03:37:57.513Z,89.2
2017-05-03T03:38:59.334Z,89.9
2017-05-03T03:40:01.151Z,90.1
2017-05-03T03:41:02.963Z,90
2017-05-03T03:42:04.775Z,89.7
2017-05-03T03:43:06.580Z,89.6
2017-05-03T03:44:08.752Z,88.8
2017-05-03T03:45:10.564Z,89.5
2017-05-03T03:46:12.378Z,89.4
2017-05-03T03:47:14.210Z,89.8
2017-05-03T03:48:16.035Z,90.2
2017-05-03T03:49:18.193Z,90.7
2017-05-03T03:50:20.359Z,90.5
2017-05-03T03:51:22.169Z,90.3
2017-05-03T03:52:23.988Z,89.9
2017-05-03T03:53:25.815Z,90
2017-05-03T03:54:27.652Z,90.2
2017-05-03T03:55:29.807Z,89.9
2017-05-03T03:56:31.618Z,89.6
2017-05-03T03:57:33.465Z,89.6
2017-05-03T03:58:35.279Z,89.5
2017-05-03T03:59:37.089Z,89.3
2017-05-03T04:00:39.258Z,90.1
2017-05-03T04:01:41.114Z,90.3
2017-05-03T04:02:42.924Z,90.5
2017-05-03T04:03:44.754Z,90.6
2017-05-03T04:04:46.569Z,89.9
2017-05-03T04:05:48.386Z,89.5
2017-05-03T04:06:50.202Z,89.2
2017-05-03T04:07:52.019Z,89.5
2017-05-03T04:08:53.830Z,89.8
2017-05-03T04:09:55.649Z,90.1
2017-05-03T04:10:57.465Z,90
2017-05-03T04:11:59.296Z,90.1
2017-05-03T04:13:01.097Z,90
2017-05-03T04:14:02.925Z,89.8
2017-05-03T04:15:04.746Z,89.7
2017-05-03T04:16:06.554Z,90.2
2017-05-03T04:17:08.367Z,90.7
2017-05-03T04:18:10.517Z,90.5
2017-05-03T04:19:12.340Z,90.1
2017-05-03T04:20:14.157Z,89.6
2017-05-03T04:21:16.322Z,89.3
2017-05-03T04:22:18.122Z,89.1
2017-05-03T04:23:19.963Z,88.9
2017-05-03T04:24:21.775Z,89
2017-05-03T04:25:23.581Z,88.9
2017-05-03T04:26:25.729Z,89.1
2017-05-03T04:27:27.890Z,89.1
2017-05-03T04:28:29.703Z,89
2017-05-03T04:29:31.522Z,89.2
2017-05-03T04:30:33.336Z,89.2
2017-05-03T04:31:35.193Z,89.2
2017-05-03T04:32:37.378Z,88.8
2017-05-03T04:33:39.575Z,88.7
2017-05-03T04:34:41.428Z,88.9
2017-05-03T04:35:43.257Z,88.3
2017-05-03T04:36:45.418Z,89
2017-05-03T04:37:47.564Z,88.9
2017-05-03T04:38:49.377Z,89
2017-05-03T04:39:51.178Z,88.3
2017-05-03T04:40:53.026Z,88
2017-05-03T04:41:54.873Z,88.7
2017-05-03T04:42:56.692Z,89
2017-05-03T04:43:58.878Z,89
2017-05-03T04:45:01.043Z,88.9
2017-05-03T04:46:02.861Z,89.1
2017-05-03T04:47:04.679Z,89
2017-05-03T04:48:06.496Z,89.4
2017-05-03T04:49:08.320Z,89.4
2017-05-03T04:50:10.136Z,89.1
2017-05-03T04:51:11.952Z,89.1
2017-05-03T04:52:13.766Z,88.7
2017-05-03T04:53:15.945Z,88.7
2017-05-03T04:54:18.117Z,88.6
2017-05-03T04:55:19.921Z,89.5
2017-05-03T04:56:21.739Z,89.6
2017-05-03T04:57:23.550Z,90
2017-05-03T04:58:25.361Z,89.8
2017-05-03T04:59:27.504Z,90
2017-05-03T05:00:48.579Z,89.8
2017-05-03T05:01:50.445Z,88.6
2017-05-03T05:02:52.316Z,89
2017-05-03T05:03:54.531Z,89.5
2017-05-03T05:04:56.431Z,89.6
2017-05-03T05:05:58.289Z,89.2
2017-05-03T05:07:00.168Z,89.3
2017-05-03T05:08:02.007Z,89.5
2017-05-03T05:09:03.882Z,89.4
2017-05-03T05:10:06.078Z,89.5
2017-05-03T05:11:07.943Z,90
2017-05-03T05:12:09.800Z,89.8
2017-05-03T05:13:11.661Z,90.3
2017-05-03T05:14:13.533Z,89.8
2017-05-03T05:15:15.753Z,89.1
2017-05-03T05:16:17.623Z,89.2
2017-05-03T05:17:19.468Z,89.2
2017-05-03T05:18:21.336Z,89.4
2017-05-03T05:19:23.245Z,89.1
2017-05-03T05:20:25.116Z,89.1
2017-05-03T05:21:27.002Z,89.1
2017-05-03T05:22:28.867Z,89
2017-05-03T05:23:30.735Z,88.6
2017-05-03T05:24:32.617Z,89.4
2017-05-03T05:25:34.463Z,89.8
2017-05-03T05:26:36.332Z,89.4
2017-05-03T05:27:38.196Z,89.1
2017-05-03T05:28:40.086Z,89.5
2017-05-03T05:29:41.948Z,90.2
2017-05-03T05:30:43.805Z,89.6
2017-05-03T05:31:45.682Z,88.9
2017-05-03T05:32:47.541Z,88.6
2017-05-03T05:33:49.413Z,88.2
2017-05-03T05:34:51.611Z,88.7
2017-05-03T05:35:53.466Z,88.8
2017-05-03T05:36:55.334Z,89.5
2017-05-03T05:37:57.523Z,89.2
2017-05-03T05:38:59.399Z,89
2017-05-03T05:40:01.314Z,89.5
2017-05-03T05:41:03.186Z,89.5
2017-05-03T05:42:05.384Z,88.9
2017-05-03T05:43:07.257Z,88.7
2017-05-03T05:44:09.465Z,89.2
2017-05-03T05:45:11.360Z,89.3
2017-05-03T05:46:13.217Z,89.1
2017-05-03T05:47:15.089Z,88.8
2017-05-03T05:48:17.293Z,88.4
2017-05-03T05:49:19.173Z,88.4
2017-05-03T05:50:21.378Z,88.1
2017-05-03T05:51:23.254Z,88.3
2017-05-03T05:52:25.115Z,88.4
2017-05-03T05:53:26.990Z,88.5
2017-05-03T05:54:28.857Z,88.7
2017-05-03T05:55:30.712Z,88.3
2017-05-03T05:56:32.574Z,88.3
2017-05-03T05:57:34.436Z,88.2
2017-05-03T05:58:36.328Z,88.2
2017-05-03T05:59:38.858Z,88.1
2017-05-03T06:00:40.734Z,87.9
2017-05-03T06:01:42.599Z,87.7
2017-05-03T06:02:44.466Z,87.4
2017-05-03T06:03:46.327Z,87.5
2017-05-03T06:04:48.531Z,87.5
2017-05-03T06:05:51.059Z,87.4
2017-05-03T06:06:52.946Z,87.7
2017-05-03T06:07:55.140Z,87.7
2017-05-03T06:08:57.349Z,87.2
2017-05-03T06:09:59.203Z,87.1
2017-05-03T06:11:01.419Z,86.9
2017-05-03T06:12:03.300Z,87.1
2017-05-03T06:13:05.162Z,87.2
2017-05-03T06:14:07.030Z,86.4
2017-05-03T06:15:08.923Z,86.2
2017-05-03T06:16:11.126Z,86.4
2017-05-03T06:17:12.982Z,86.5
2017-05-03T06:18:15.213Z,86.3
2017-05-03T06:19:17.419Z,86.2
2017-05-03T06:20:19.290Z,86.1
2017-05-03T06:21:21.174Z,86.6
2017-05-03T06:22:23.371Z,86.2
2017-05-03T06:23:25.239Z,85.9
2017-05-03T06:24:27.111Z,86.1
2017-05-03T06:25:28.976Z,86.5
2017-05-03T06:26:30.850Z,86.6
2017-05-03T06:27:32.704Z,86.7
2017-05-03T06:28:34.901Z,85.9
2017-05-03T06:29:36.762Z,85.4
2017-05-03T06:30:38.635Z,85.3
2017-05-03T06:31:40.500Z,85.6
2017-05-03T06:32:42.383Z,85.6
2017-05-03T06:33:44.593Z,86.4
2017-05-03T06:34:46.480Z,86.2
2017-05-03T06:35:48.348Z,85.9
2017-05-03T06:36:50.212Z,86.2
2017-05-03T06:37:52.077Z,85.7
2017-05-03T06:38:54.274Z,85.8
2017-05-03T06:39:56.170Z,85.5
2017-05-03T06:40:58.029Z,85.8
2017-05-03T06:41:59.896Z,85.5
2017-05-03T06:43:01.766Z,84.3
2017-05-03T06:44:03.620Z,85
2017-05-03T06:45:05.530Z,84.8
2017-05-03T06:46:07.415Z,84.6
2017-05-03T06:47:09.276Z,84.1
2017-05-03T06:48:11.166Z,83.5
2017-05-03T06:49:13.032Z,83.6
2017-05-03T06:50:14.902Z,83.4
2017-05-03T06:51:17.209Z,83.4
2017-05-03T06:52:19.087Z,83.5
2017-05-03T06:53:20.954Z,83.5
2017-05-03T06:54:22.831Z,83.1
2017-05-03T06:55:24.708Z,82.8
2017-05-03T06:56:26.560Z,82.7
2017-05-03T06:57:28.775Z,82.8
2017-05-03T06:58:30.632Z,82.1
2017-05-03T06:59:32.501Z,82
2017-05-03T07:00:34.363Z,81.3
2017-05-03T07:01:36.231Z,81.1
2017-05-03T07:02:38.102Z,81.5
2017-05-03T07:03:40.305Z,81.9
2017-05-03T07:04:42.176Z,81.8
2017-05-03T07:05:44.061Z,80.8
2017-05-03T07:06:45.943Z,81.5
2017-05-03T07:07:47.791Z,82.5
2017-05-03T07:08:49.681Z,80.7
2017-05-03T07:09:52.282Z,80.2
2017-05-03T07:10:54.481Z,79.6
2017-05-03T07:11:56.370Z,80.1
2017-05-03T07:12:58.307Z,80.4
2017-05-03T07:14:00.632Z,79.4
2017-05-03T07:15:02.936Z,78.5
2017-05-03T07:16:04.796Z,78.9
2017-05-03T07:17:06.715Z,79.8
2017-05-03T07:18:09.017Z,80.9
2017-05-03T07:19:11.661Z,79.8
2017-05-03T07:20:13.864Z,79.2
2017-05-03T07:21:15.782Z,78.8
2017-05-03T07:22:17.644Z,78.2
2017-05-03T07:23:19.511Z,79
2017-05-03T07:24:21.386Z,78.5
2017-05-03T07:25:23.238Z,78.9
2017-05-03T07:26:25.109Z,78.2
2017-05-03T07:27:27.319Z,77.9
2017-05-03T07:28:29.202Z,77.9
2017-05-03T07:29:31.061Z,77.5
2017-05-03T07:30:32.933Z,77.4
2017-05-03T07:31:34.817Z,77.7
2017-05-03T07:32:36.678Z,77.3
2017-05-03T07:33:38.568Z,76.9
2017-05-03T07:34:40.437Z,77.5
2017-05-03T07:35:42.652Z,78.4
2017-05-03T07:36:44.863Z,78.4
2017-05-03T07:37:46.711Z,77.7
2017-05-03T07:38:48.964Z,77.6
2017-05-03T07:39:50.837Z,77.8
2017-05-03T07:40:52.711Z,77.6
2017-05-03T07:41:54.563Z,77.5
2017-05-03T07:42:56.449Z,77.9
2017-05-03T07:43:58.323Z,76.9
2017-05-03T07:45:00.186Z,76.9
2017-05-03T07:46:02.076Z,76.6
2017-05-03T07:47:03.945Z,76.3
2017-05-03T07:48:05.832Z,76.9
2017-05-03T07:49:07.672Z,76.8
2017-05-03T07:50:09.558Z,76.6
2017-05-03T07:51:11.424Z,76.2
2017-05-03T07:52:13.318Z,75.7
2017-05-03T07:53:15.190Z,75.9
2017-05-03T07:54:17.400Z,75.9
2017-05-03T07:55:19.280Z,76.3
2017-05-03T07:56:21.486Z,76.6
2017-05-03T07:57:23.339Z,76.3
2017-05-03T07:58:25.217Z,76.2
2017-05-03T07:59:27.090Z,76.9
2017-05-03T08:00:28.975Z,75.6
2017-05-03T08:01:30.865Z,76
2017-05-03T08:02:32.719Z,75.2
2017-05-03T08:03:34.614Z,75.2
2017-05-03T08:04:36.489Z,75.1
2017-05-03T08:05:38.375Z,75.4
2017-05-03T08:06:40.583Z,75.6
2017-05-03T08:07:42.468Z,76.3
2017-05-03T08:08:44.341Z,75.5
2017-05-03T08:09:46.220Z,75.3
2017-05-03T08:10:48.087Z,74.7
2017-05-03T08:11:49.967Z,74.1
2017-05-03T08:12:51.833Z,74.8
2017-05-03T08:13:53.714Z,76.1
2017-05-03T08:14:55.612Z,75.6
2017-05-03T08:15:57.484Z,74.4
2017-05-03T08:16:59.364Z,74.3
2017-05-03T08:18:01.234Z,74
2017-05-03T08:19:03.085Z,73.8
2017-05-03T08:20:04.973Z,72.9
2017-05-03T08:21:07.212Z,73.5
2017-05-03T08:22:09.109Z,73.5
2017-05-03T08:23:10.999Z,73.4
2017-05-03T08:24:13.257Z,73.2
2017-05-03T08:25:15.181Z,73.8
2017-05-03T08:26:17.401Z,72.7
2017-05-03T08:27:19.593Z,71.3
2017-05-03T08:28:21.473Z,72.2
2017-05-03T08:29:23.344Z,71.9
2017-05-03T08:30:25.225Z,72.2
2017-05-03T08:31:27.120Z,72.5
2017-05-03T08:32:29.067Z,71.9
2017-05-03T08:33:31.035Z,71.9
2017-05-03T08:34:32.955Z,72
2017-05-03T08:35:34.881Z,72
2017-05-03T08:36:36.785Z,73.3
2017-05-03T08:37:38.724Z,73.3
2017-05-03T08:38:40.626Z,72.6
2017-05-03T08:39:42.509Z,73.7
2017-05-03T08:40:44.391Z,73.2
2017-05-03T08:41:46.290Z,73.2
2017-05-03T08:42:48.181Z,72.5
2017-05-03T08:43:50.098Z,71.6
2017-05-03T08:44:51.962Z,72
2017-05-03T08:45:53.832Z,71.9
2017-05-03T08:46:55.692Z,72.3
2017-05-03T08:47:57.906Z,72.8
2017-05-03T08:48:59.797Z,72.3
2017-05-03T08:50:02.001Z,72.8
2017-05-03T08:51:03.879Z,73.1
2017-05-03T08:52:05.759Z,72.5
2017-05-03T08:53:07.695Z,73.1
2017-05-03T08:54:09.554Z,72.6
2017-05-03T08:55:11.428Z,72.3
2017-05-03T08:56:13.298Z,73.4
2017-05-03T08:57:15.235Z,72.6
2017-05-03T08:58:17.106Z,71.8
2017-05-03T08:59:18.980Z,71.3
2017-05-03T09:00:20.859Z,71
2017-05-03T09:01:22.757Z,70.8
2017-05-03T09:02:24.654Z,70.9
2017-05-03T09:03:26.517Z,71.8
2017-05-03T09:04:28.435Z,71.8
2017-05-03T09:05:30.309Z,71.5
2017-05-03T09:06:32.183Z,71
2017-05-03T09:07:34.067Z,70.2
2017-05-03T09:08:36.320Z,70.4
2017-05-03T09:09:38.200Z,71.4
2017-05-03T09:10:40.497Z,71
2017-05-03T09:11:42.444Z,70.6
2017-05-03T09:12:45.076Z,71.8
2017-05-03T09:13:46.997Z,71.1
2017-05-03T09:14:48.950Z,70.3
2017-05-03T09:15:51.531Z,70.1
2017-05-03T09:16:53.454Z,70
2017-05-03T09:17:55.398Z,69.3
2017-05-03T09:18:57.662Z,69.2
2017-05-03T09:19:59.552Z,69.6
2017-05-03T09:21:01.469Z,70.6
2017-05-03T09:22:03.693Z,71
2017-05-03T09:23:05.563Z,69.9
2017-05-03T09:24:07.447Z,69.3
2017-05-03T09:25:09.352Z,68.6
2017-05-03T09:26:11.229Z,68.1
2017-05-03T09:27:13.109Z,68.5
2017-05-03T09:28:14.981Z,68.3
2017-05-03T09:29:17.200Z,68.4
2017-05-03T09:30:19.064Z,67
2017-05-03T09:31:20.943Z,66.3
2017-05-03T09:32:23.157Z,64.9
2017-05-03T09:33:25.046Z,64.8
2017-05-03T09:34:26.919Z,66.3
2017-05-03T09:35:28.793Z,66.7
2017-05-03T09:36:30.993Z,65.3
2017-05-03T09:37:32.917Z,66.4
2017-05-03T09:38:35.129Z,66.1
2017-05-03T09:39:36.996Z,66.3
2017-05-03T09:40:38.855Z,66.2
2017-05-03T09:41:40.728Z,66.3
2017-05-03T09:42:42.598Z,65.6
2017-05-03T09:43:44.485Z,65.4
2017-05-03T09:44:46.683Z,64.9
2017-05-03T09:45:48.561Z,65.5
2017-05-03T09:46:50.434Z,65.7
2017-05-03T09:47:52.325Z,66.8
2017-05-03T09:48:54.202Z,66.2
2017-05-03T09:49:56.076Z,67.2
2017-05-03T09:50:57.951Z,66.9
2017-05-03T09:51:59.822Z,68
2017-05-03T09:53:01.705Z,67
2017-05-03T09:54:03.636Z,67.1
2017-05-03T09:55:05.532Z,67.6
2017-05-03T09:56:07.421Z,67.8
2017-05-03T09:57:09.349Z,66.7
2017-05-03T09:58:11.314Z,67.1
2017-05-03T09:59:13.205Z,66.6
2017-05-03T10:00:15.464Z,67.6
2017-05-03T10:01:17.688Z,66.1
2017-05-03T10:02:19.610Z,66.3
2017-05-03T10:03:21.540Z,65.9
2017-05-03T10:04:23.443Z,66.4
2017-05-03T10:05:25.323Z,66.6
2017-05-03T10:06:27.193Z,66.1
2017-05-03T10:07:29.062Z,65.2
2017-05-03T10:08:30.922Z,66.2
2017-05-03T10:09:32.788Z,66
2017-05-03T10:10:34.999Z,65.7
2017-05-03T10:11:36.879Z,65.6
2017-05-03T10:12:38.757Z,66.4
2017-05-03T10:13:40.635Z,67.1
2017-05-03T10:14:42.491Z,67.3
2017-05-03T10:15:44.384Z,67.5
2017-05-03T10:16:46.257Z,67.6
2017-05-03T10:17:48.132Z,67.4
2017-05-03T10:18:50.346Z,66.5
2017-05-03T10:19:52.228Z,66
2017-05-03T10:20:54.109Z,67.3
2017-05-03T10:21:55.988Z,67.8
2017-05-03T10:22:57.847Z,67.3
2017-05-03T10:25:02.558Z,66.9
2017-05-03T10:26:04.447Z,67.6
2017-05-03T10:27:06.308Z,67.4
2017-05-03T10:28:08.184Z,66.5
2017-05-03T10:29:10.397Z,66.4
2017-05-03T10:30:12.276Z,66.4
2017-05-03T10:31:14.136Z,67.2
2017-05-03T10:32:16.340Z,67.1
2017-05-03T10:33:18.199Z,67.7
2017-05-03T10:34:20.423Z,67.4
2017-05-03T10:35:22.283Z,67.3
2017-05-03T10:36:24.155Z,65.5
2017-05-03T10:37:26.011Z,65.8
2017-05-03T10:38:27.890Z,65.7
2017-05-03T10:39:29.770Z,66.1
2017-05-03T10:40:31.630Z,66.6
2017-05-03T10:41:33.512Z,66.8
2017-05-03T10:42:35.393Z,66.3
2017-05-03T10:43:37.253Z,65.9
2017-05-03T10:44:39.125Z,64.9
2017-05-03T10:45:40.991Z,64.4
2017-05-03T10:46:42.868Z,65.3
2017-05-03T10:47:44.733Z,65.3
2017-05-03T10:48:46.608Z,64.8
2017-05-03T10:49:48.493Z,64
2017-05-03T10:50:50.698Z,63.5
2017-05-03T10:51:52.604Z,62.7
2017-05-03T10:52:54.500Z,62.2
2017-05-03T10:53:56.388Z,61.2
2017-05-03T10:54:58.279Z,60.6
2017-05-03T10:56:00.140Z,60.2
2017-05-03T10:57:02.013Z,59.4
2017-05-03T10:58:03.888Z,59.6
2017-05-03T10:59:05.768Z,59.3
2017-05-03T11:00:07.972Z,58.3
2017-05-03T11:01:10.178Z,58.5
2017-05-03T11:02:12.053Z,57.3
2017-05-03T11:03:13.913Z,57.6
2017-05-03T11:04:15.784Z,57.2
2017-05-03T11:05:17.655Z,57.7
2017-05-03T11:06:19.519Z,57.2
2017-05-03T11:07:21.468Z,56.6
2017-05-03T11:08:23.394Z,56.8
2017-05-03T11:09:25.331Z,56.2
2017-05-03T11:10:27.228Z,55.9
2017-05-03T11:11:29.163Z,56
2017-05-03T11:12:31.074Z,57.2
2017-05-03T11:13:33.029Z,54.8
2017-05-03T11:14:35.286Z,54.9
2017-05-03T11:15:37.268Z,54.7
2017-05-03T11:16:39.211Z,55.6
2017-05-03T11:17:41.102Z,54.7
2017-05-03T11:18:43.308Z,53.8
2017-05-03T11:19:45.200Z,54.1
2017-05-03T11:20:47.079Z,53.7
2017-05-03T11:21:48.958Z,53.8
2017-05-03T11:22:50.835Z,55.5
2017-05-03T11:23:52.750Z,56.1
2017-05-03T11:24:54.694Z,54
2017-05-03T11:25:56.565Z,53.8
2017-05-03T11:26:58.437Z,54.9
2017-05-03T11:28:00.307Z,54.4
2017-05-03T11:29:02.214Z,52.7
2017-05-03T11:30:04.094Z,52.1
2017-05-03T11:31:05.990Z,51.6
2017-05-03T11:32:07.871Z,52.7
2017-05-03T11:33:09.804Z,53.5
2017-05-03T11:34:11.717Z,51.7
2017-05-03T11:35:13.749Z,52.8
2017-05-03T11:36:15.620Z,53.5
2017-05-03T11:37:17.579Z,52.8
2017-05-03T11:38:19.447Z,53.1
2017-05-03T11:39:21.349Z,53
2017-05-03T11:40:23.251Z,52.9
2017-05-03T11:41:25.164Z,54.4
2017-05-03T11:42:27.383Z,53.7
2017-05-03T11:43:29.271Z,53.3
2017-05-03T11:44:31.725Z,53.2
2017-05-03T11:45:33.602Z,53
2017-05-03T11:46:35.515Z,54.2
2017-05-03T11:47:37.741Z,54.2
2017-05-03T11:48:39.953Z,53.6
2017-05-03T11:49:41.838Z,54.5
2017-05-03T11:50:43.983Z,55.5
2017-05-03T11:51:46.100Z,54.6
2017-05-03T11:52:48.021Z,54.5
2017-05-03T11:53:50.125Z,54.4
2017-05-03T11:54:52.046Z,55.2
2017-05-03T11:55:54.376Z,54.8
2017-05-03T11:56:56.267Z,54
2017-05-03T11:57:58.530Z,54.5
2017-05-03T11:59:00.434Z,54.9
2017-05-03T12:00:02.338Z,55.4
2017-05-03T12:01:04.639Z,55.4
2017-05-03T12:02:06.563Z,56.2
2017-05-03T12:03:08.469Z,56.2
2017-05-03T12:04:10.344Z,55.2
2017-05-03T12:05:12.215Z,54.7
2017-05-03T12:06:14.104Z,54.7
2017-05-03T12:07:15.973Z,54.7
2017-05-03T12:08:17.847Z,55
2017-05-03T12:09:19.716Z,55.4
2017-05-03T12:10:21.610Z,55
2017-05-03T12:11:23.476Z,55.2
2017-05-03T12:12:25.349Z,55.7
2017-05-03T12:13:27.232Z,55.3
2017-05-03T12:14:29.114Z,54.8
2017-05-03T12:15:31.356Z,55.5
2017-05-03T12:16:33.232Z,55.8
2017-05-03T12:17:35.096Z,55.9
2017-05-03T12:18:36.991Z,56.1
2017-05-03T12:19:38.857Z,55.4
2017-05-03T12:20:40.734Z,55.7
2017-05-03T12:21:42.935Z,55.4
2017-05-03T12:22:44.826Z,55.4
2017-05-03T12:23:46.705Z,55.7
2017-05-03T12:24:48.579Z,56.6
2017-05-03T12:25:50.810Z,55.7
2017-05-03T12:26:52.673Z,56
2017-05-03T12:27:54.569Z,55.7
2017-05-03T12:28:56.459Z,57.1
2017-05-03T12:29:58.307Z,56.9
2017-05-03T12:31:00.542Z,56.9
2017-05-03T12:32:02.416Z,56.7
2017-05-03T12:33:04.306Z,57
2017-05-03T12:34:06.180Z,57.4
2017-05-03T12:35:08.057Z,58.2
2017-05-03T12:36:09.937Z,58.9
2017-05-03T12:37:11.807Z,58.6
2017-05-03T12:38:14.042Z,58.1
2017-05-03T12:39:15.912Z,57.8
2017-05-03T12:40:17.784Z,58.6
2017-05-03T12:41:19.684Z,58.6
2017-05-03T12:42:21.558Z,58.2
2017-05-03T12:43:23.421Z,57.7
2017-05-03T12:44:25.300Z,58
2017-05-03T12:45:27.185Z,58.3
2017-05-03T12:46:29.057Z,58.6
2017-05-03T12:47:30.930Z,58.8
2017-05-03T12:48:32.794Z,58.9
2017-05-03T12:49:35.004Z,58.5
2017-05-03T12:50:36.880Z,57.8
2017-05-03T12:51:38.765Z,57.6
2017-05-03T12:52:40.633Z,59.8
2017-05-03T12:53:42.508Z,58.8
2017-05-03T12:54:44.400Z,58.7
2017-05-03T12:56:44.066Z,59.2
2017-05-03T12:57:46.237Z,60
2017-05-03T12:58:48.077Z,60.5
2017-05-03T12:59:49.912Z,60.3
2017-05-03T13:00:51.746Z,61.1
2017-05-03T13:01:53.933Z,61.8
2017-05-03T13:02:56.112Z,61.8
2017-05-03T13:03:57.947Z,61.2
2017-05-03T13:04:59.785Z,61.6
2017-05-03T13:06:01.617Z,61.9
2017-05-03T13:07:03.452Z,61.5
2017-05-03T13:08:05.292Z,61.7
2017-05-03T13:09:07.126Z,62.1
2017-05-03T13:10:08.970Z,62
2017-05-03T13:11:11.146Z,62
2017-05-03T13:12:12.987Z,61.7
2017-05-03T13:13:14.833Z,61.8
2017-05-03T13:14:16.668Z,61.2
2017-05-03T13:15:18.496Z,61.3
2017-05-03T13:16:20.682Z,61.1
2017-05-03T13:17:22.518Z,60.9
2017-05-03T13:18:24.403Z,61.8
2017-05-03T13:19:26.246Z,62
2017-05-03T13:20:28.427Z,61.7
2017-05-03T13:21:30.286Z,62.6
2017-05-03T13:22:32.123Z,62.2
2017-05-03T13:23:34.318Z,62.6
2017-05-03T13:24:36.156Z,62.7
2017-05-03T13:25:37.989Z,61.3
2017-05-03T13:26:39.833Z,60.7
2017-05-03T13:27:42.006Z,59.3
2017-05-03T13:28:43.845Z,59.4
2017-05-03T13:29:45.680Z,59.8
2017-05-03T13:30:47.511Z,60.2
2017-05-03T13:31:49.345Z,60
2017-05-03T13:32:51.179Z,60.4
2017-05-03T13:33:53.373Z,59.4
2017-05-03T13:34:55.545Z,59
2017-05-03T13:35:57.391Z,58.7
2017-05-03T13:36:59.233Z,58.6
2017-05-03T13:38:01.074Z,59.3
2017-05-03T13:39:02.924Z,59.1
2017-05-03T13:40:04.767Z,58.7
2017-05-03T13:41:06.614Z,59.5
2017-05-03T13:42:08.445Z,58.9
2017-05-03T13:43:10.285Z,58.6
2017-05-03T13:44:12.119Z,57.8
2017-05-03T13:45:13.991Z,60.2
2017-05-03T13:46:15.829Z,58.9
2017-05-03T13:47:17.669Z,58.1
2017-05-03T13:48:19.511Z,58.3
2017-05-03T13:49:21.350Z,57.6
2017-05-03T13:50:23.196Z,57.2
2017-05-03T13:51:25.029Z,57.2